Time;durP1;ratioP1;P1;durP2;ratioP2;P2;SDS_P1;SDS_P2;PMS_P1;PMS_P2;Temp;Humidity;BMP_temperature;BMP_pressure;BME280_temperature;BME280_humidity;BME280_pressure;Samples;Min_cycle;Max_cycle;Signal;HPM_P1;HPM_P2
2023/07/29 00:00:04;;;;;;;2.90;1.83;;;;;;;;;;4961512;28;20442;-89
2023/07/29 00:02:34;;;;;;;2.50;2.17;;;;;;;;;;4946139;28;20452;-89
2023/07/29 00:05:00;;;;;;;1.53;1.33;;;;;;;;;;4964275;28;20561;-91
2023/07/29 00:07:26;;;;;;;3.30;1.50;;;;;;;;;;4931716;29;20845;-90
2023/07/29 00:09:52;;;;;;;2.90;1.87;;;;;;;;;;4926261;29;20506;-90
2023/07/29 00:12:18;;;;;;;4.37;1.80;;;;;;;;;;4929982;28;20851;-90
2023/07/29 00:14:44;;;;;;;6.20;1.97;;;;;;;;;;4928179;29;20455;-90
2023/07/29 00:17:10;;;;;;;2.10;1.70;;;;;;;;;;4971834;28;20425;-90
2023/07/29 00:19:36;;;;;;;2.87;1.70;;;;;;;;;;4948601;29;20427;-89
2023/07/29 00:22:02;;;;;;;1.90;1.47;;;;;;;;;;4971791;28;20774;-89
2023/07/29 00:24:28;;;;;;;2.50;1.80;;;;;;;;;;4943984;29;20805;-90
2023/07/29 00:26:54;;;;;;;2.17;1.40;;;;;;;;;;4942086;29;20435;-89
2023/07/29 00:29:20;;;;;;;2.97;1.93;;;;;;;;;;4971563;28;20928;-90
2023/07/29 00:31:46;;;;;;;2.60;1.67;;;;;;;;;;4941856;29;20423;-90
2023/07/29 00:34:17;;;;;;;3.03;1.60;;;;;;;;;;4946789;28;20463;-90
2023/07/29 00:36:43;;;;;;;2.37;1.40;;;;;;;;;;4946033;28;20422;-90
2023/07/29 00:39:09;;;;;;;2.23;1.63;;;;;;;;;;4980578;28;20431;-90
2023/07/29 00:41:35;;;;;;;3.67;1.73;;;;;;;;;;4959538;28;20435;-90
2023/07/29 00:44:01;;;;;;;2.77;1.50;;;;;;;;;;4957059;28;20428;-89
2023/07/29 00:46:27;;;;;;;2.90;1.70;;;;;;;;;;4974359;28;20521;-91
2023/07/29 00:48:53;;;;;;;5.30;1.97;;;;;;;;;;4990123;28;20418;-90
2023/07/29 00:51:19;;;;;;;4.73;1.70;;;;;;;;;;4940467;29;20431;-90
2023/07/29 00:53:45;;;;;;;3.83;1.83;;;;;;;;;;4944431;28;20490;-91
2023/07/29 00:56:11;;;;;;;2.10;1.87;;;;;;;;;;4947104;29;20425;-90
2023/07/29 00:58:39;;;;;;;2.13;1.57;;;;;;;;;;4962831;28;20427;-89
2023/07/29 01:01:05;;;;;;;2.43;1.83;;;;;;;;;;4952957;28;20844;-90
2023/07/29 01:03:31;;;;;;;1.70;1.20;;;;;;;;;;4936066;28;20450;-90
2023/07/29 01:06:00;;;;;;;4.03;1.23;;;;;;;;;;4927868;28;20475;-90
2023/07/29 01:08:32;;;;;;;2.30;1.40;;;;;;;;;;4962012;28;21017;-90
2023/07/29 01:11:17;;;;;;;2.40;1.60;;;;;;;;;;5233071;23;20490;-88
2023/07/29 01:14:11;;;;;;;2.07;1.80;;;;;;;;;;4982826;28;20884;-90
2023/07/29 01:16:40;;;;;;;3.40;1.60;;;;;;;;;;4993915;28;20437;-89
2023/07/29 01:19:09;;;;;;;4.10;1.50;;;;;;;;;;4983060;28;20816;-89
2023/07/29 01:21:36;;;;;;;4.27;1.73;;;;;;;;;;4981051;28;21048;-88
2023/07/29 01:24:02;;;;;;;3.27;1.70;;;;;;;;;;4983917;28;20433;-89
2023/07/29 01:26:29;;;;;;;1.87;1.57;;;;;;;;;;4983231;28;20465;-90
2023/07/29 01:28:55;;;;;;;2.10;1.70;;;;;;;;;;4982578;28;20544;-90
2023/07/29 01:31:34;;;;;;;2.73;1.70;;;;;;;;;;4995479;28;20524;-90
2023/07/29 01:34:02;;;;;;;3.90;1.60;;;;;;;;;;4985307;28;20726;-90
2023/07/29 01:36:29;;;;;;;2.00;1.70;;;;;;;;;;4976101;28;20488;-90
2023/07/29 01:38:55;;;;;;;1.90;1.27;;;;;;;;;;4984844;28;20458;-89
2023/07/29 01:41:21;;;;;;;2.13;1.57;;;;;;;;;;4997880;28;20425;-90
2023/07/29 01:43:55;;;;;;;2.47;1.60;;;;;;;;;;4986574;28;20456;-90
2023/07/29 01:46:28;;;;;;;2.30;1.50;;;;;;;;;;5003349;28;20457;-90
2023/07/29 01:48:54;;;;;;;2.80;1.80;;;;;;;;;;4984535;28;20566;-90
2023/07/29 01:51:21;;;;;;;2.27;1.80;;;;;;;;;;4983174;28;20437;-90
2023/07/29 01:53:47;;;;;;;2.30;1.60;;;;;;;;;;4979784;28;20463;-90
2023/07/29 01:56:13;;;;;;;2.10;1.77;;;;;;;;;;4987028;28;20405;-90
2023/07/29 01:58:39;;;;;;;2.20;1.80;;;;;;;;;;4983604;28;20444;-90
2023/07/29 02:01:05;;;;;;;4.73;1.70;;;;;;;;;;5005391;28;20441;-89
2023/07/29 02:03:31;;;;;;;1.90;1.60;;;;;;;;;;4997589;28;20432;-90
2023/07/29 02:05:56;;;;;;;2.93;1.50;;;;;;;;;;4986475;28;20476;-90
2023/07/29 02:08:22;;;;;;;2.03;1.80;;;;;;;;;;4983172;28;20437;-91
2023/07/29 02:10:48;;;;;;;2.53;1.73;;;;;;;;;;4977638;28;20465;-90
2023/07/29 02:13:15;;;;;;;4.63;1.83;;;;;;;;;;5014424;28;20437;-89
2023/07/29 02:15:40;;;;;;;2.00;1.50;;;;;;;;;;4986391;28;20439;-90
2023/07/29 02:18:07;;;;;;;3.70;1.90;;;;;;;;;;4984266;28;20452;-90
2023/07/29 02:20:33;;;;;;;2.50;1.90;;;;;;;;;;4992024;28;20437;-90
2023/07/29 02:22:59;;;;;;;3.73;1.90;;;;;;;;;;4984094;28;20972;-90
2023/07/29 02:25:25;;;;;;;2.10;1.53;;;;;;;;;;5000551;28;20476;-90
2023/07/29 02:27:51;;;;;;;2.47;1.57;;;;;;;;;;4981252;28;20414;-90
2023/07/29 02:30:17;;;;;;;1.60;1.20;;;;;;;;;;4975940;28;20668;-90
2023/07/29 02:32:43;;;;;;;2.23;1.57;;;;;;;;;;4977627;28;22246;-90
2023/07/29 02:35:10;;;;;;;4.43;1.93;;;;;;;;;;4981996;28;20793;-90
2023/07/29 02:37:36;;;;;;;3.50;1.50;;;;;;;;;;4978127;28;20430;-91
2023/07/29 02:40:02;;;;;;;3.37;1.83;;;;;;;;;;4995012;28;20417;-90
2023/07/29 02:42:28;;;;;;;6.30;1.77;;;;;;;;;;4962295;28;20445;-90
2023/07/29 02:44:55;;;;;;;4.10;1.87;;;;;;;;;;4944258;29;21015;-90
2023/07/29 02:47:20;;;;;;;2.77;1.97;;;;;;;;;;4972477;28;20538;-90
2023/07/29 02:52:23;;;;;;;2.20;2.00;;;;;;;;;;5099106;22;20502;-90
2023/07/29 02:54:49;;;;;;;2.47;1.70;;;;;;;;;;5013748;28;20527;-90
2023/07/29 02:57:17;;;;;;;2.80;2.00;;;;;;;;;;5009187;28;20424;-90
2023/07/29 02:59:43;;;;;;;3.83;3.43;;;;;;;;;;5004993;28;20449;-90
2023/07/29 03:02:09;;;;;;;2.30;1.83;;;;;;;;;;5028226;28;20438;-90
2023/07/29 03:04:35;;;;;;;1.87;1.67;;;;;;;;;;5009896;28;20419;-90
2023/07/29 03:07:01;;;;;;;2.50;1.73;;;;;;;;;;5019947;28;20419;-90
2023/07/29 03:09:27;;;;;;;2.77;1.87;;;;;;;;;;5005685;28;20419;-90
2023/07/29 03:11:56;;;;;;;2.80;1.97;;;;;;;;;;5019720;28;20778;-90
2023/07/29 03:14:23;;;;;;;2.80;1.97;;;;;;;;;;5000049;28;20448;-90
2023/07/29 03:16:52;;;;;;;3.13;1.60;;;;;;;;;;4989829;28;20443;-90
2023/07/29 03:19:18;;;;;;;6.80;2.33;;;;;;;;;;5029143;28;21050;-90
2023/07/29 03:21:44;;;;;;;4.23;1.83;;;;;;;;;;5011141;28;20431;-90
2023/07/29 03:24:10;;;;;;;2.50;1.70;;;;;;;;;;5036043;28;20420;-90
2023/07/29 03:26:36;;;;;;;1.90;1.60;;;;;;;;;;5019746;28;20468;-91
2023/07/29 03:29:02;;;;;;;2.70;1.77;;;;;;;;;;5015397;28;20461;-91
2023/07/29 03:31:28;;;;;;;2.20;1.67;;;;;;;;;;5004878;28;20931;-90
2023/07/29 03:33:54;;;;;;;2.20;1.53;;;;;;;;;;5001637;28;20487;-90
2023/07/29 03:36:20;;;;;;;2.13;1.50;;;;;;;;;;5013170;28;20796;-90
2023/07/29 03:38:47;;;;;;;3.42;2.08;;;;;;;;;;5018204;28;20632;-91
2023/07/29 03:41:13;;;;;;;4.90;2.00;;;;;;;;;;5019245;28;20185;-91
2023/07/29 03:43:39;;;;;;;2.83;2.23;;;;;;;;;;4995122;28;20408;-91
2023/07/29 03:46:05;;;;;;;4.97;2.53;;;;;;;;;;5033517;28;20475;-91
2023/07/29 03:48:31;;;;;;;4.20;1.80;;;;;;;;;;5004949;28;20475;-91
2023/07/29 03:51:05;;;;;;;2.00;1.50;;;;;;;;;;5024282;28;20493;-91
2023/07/29 03:53:31;;;;;;;4.23;1.97;;;;;;;;;;4979171;28;20500;-91
2023/07/29 03:55:57;;;;;;;5.53;2.20;;;;;;;;;;5000785;28;20439;-92
2023/07/29 03:58:23;;;;;;;2.33;2.03;;;;;;;;;;5014033;28;20440;-91
2023/07/29 04:00:49;;;;;;;3.23;2.17;;;;;;;;;;4999127;28;20449;-90
2023/07/29 04:03:15;;;;;;;4.50;2.20;;;;;;;;;;5017375;28;20418;-91
2023/07/29 04:05:41;;;;;;;5.40;2.40;;;;;;;;;;5002285;28;20551;-91
2023/07/29 04:08:09;;;;;;;3.90;2.20;;;;;;;;;;5004653;28;20925;-92
2023/07/29 04:10:35;;;;;;;3.20;2.30;;;;;;;;;;5013527;28;20440;-92
2023/07/29 04:13:01;;;;;;;3.40;2.40;;;;;;;;;;5001758;28;20427;-90
2023/07/29 04:15:30;;;;;;;12.87;2.40;;;;;;;;;;5014124;28;20423;-92
2023/07/29 04:17:56;;;;;;;3.70;2.50;;;;;;;;;;5014737;28;20474;-90
2023/07/29 04:20:22;;;;;;;4.60;2.23;;;;;;;;;;5013801;28;20451;-89
2023/07/29 04:22:48;;;;;;;4.60;2.40;;;;;;;;;;5008207;28;20477;-90
2023/07/29 04:25:18;;;;;;;2.67;1.93;;;;;;;;;;5009103;28;20455;-90
2023/07/29 04:27:44;;;;;;;4.60;2.40;;;;;;;;;;5012826;28;20827;-89
2023/07/29 04:30:11;;;;;;;3.33;2.17;;;;;;;;;;5010253;28;20523;-89
2023/07/29 04:32:37;;;;;;;3.13;2.17;;;;;;;;;;5020289;28;20526;-89
2023/07/29 04:35:03;;;;;;;4.27;1.70;;;;;;;;;;5016898;28;20938;-89
2023/07/29 04:37:29;;;;;;;3.00;2.50;;;;;;;;;;5010509;28;20395;-89
2023/07/29 04:39:55;;;;;;;4.33;2.57;;;;;;;;;;5013360;28;20448;-89
2023/07/29 04:42:22;;;;;;;9.30;2.70;;;;;;;;;;5010617;28;20520;-89
2023/07/29 04:44:49;;;;;;;2.67;2.40;;;;;;;;;;5020578;28;20822;-89
2023/07/29 04:47:15;;;;;;;9.13;3.53;;;;;;;;;;5008248;28;20424;-89
2023/07/29 04:49:40;;;;;;;4.50;2.97;;;;;;;;;;5024925;28;20432;-87
2023/07/29 04:52:09;;;;;;;4.20;2.60;;;;;;;;;;5034142;28;20432;-89
2023/07/29 04:54:35;;;;;;;3.40;2.57;;;;;;;;;;5020706;28;20424;-88
2023/07/29 04:57:02;;;;;;;4.37;2.67;;;;;;;;;;5029017;28;20436;-89
2023/07/29 04:59:27;;;;;;;2.63;2.33;;;;;;;;;;5037890;28;20423;-89
2023/07/29 05:01:53;;;;;;;3.10;2.23;;;;;;;;;;5007605;28;20448;-89
2023/07/29 05:04:19;;;;;;;3.57;2.60;;;;;;;;;;5032411;28;20445;-89
2023/07/29 05:06:45;;;;;;;3.73;2.97;;;;;;;;;;5025524;28;20856;-89
2023/07/29 05:09:18;;;;;;;4.03;2.80;;;;;;;;;;5016892;28;20507;-90
2023/07/29 05:11:47;;;;;;;4.33;2.70;;;;;;;;;;5022408;28;20443;-89
2023/07/29 05:14:17;;;;;;;3.40;2.70;;;;;;;;;;5013177;28;20439;-90
2023/07/29 05:16:43;;;;;;;3.40;2.40;;;;;;;;;;5034553;28;21142;-89
2023/07/29 05:19:09;;;;;;;4.50;2.30;;;;;;;;;;5019921;28;20800;-90
2023/07/29 05:21:35;;;;;;;5.47;2.87;;;;;;;;;;5006724;28;20470;-90
2023/07/29 05:24:01;;;;;;;3.60;2.33;;;;;;;;;;5004800;28;20424;-89
2023/07/29 05:26:27;;;;;;;6.70;3.03;;;;;;;;;;5005917;28;20469;-90
2023/07/29 05:28:53;;;;;;;4.60;3.50;;;;;;;;;;5013684;28;20456;-89
2023/07/29 05:39:05;;;;;;;2.53;2.33;;;;;;;;;;4998355;28;21025;-88
2023/07/29 05:41:31;;;;;;;2.97;2.67;;;;;;;;;;5001750;28;20444;-90
2023/07/29 05:43:57;;;;;;;3.10;2.30;;;;;;;;;;4985752;28;20479;-90
2023/07/29 05:46:23;;;;;;;2.90;2.30;;;;;;;;;;4989057;28;20453;-89
2023/07/29 05:48:49;;;;;;;6.53;2.93;;;;;;;;;;4979918;28;20512;-90
2023/07/29 05:51:19;;;;;;;3.80;2.60;;;;;;;;;;4979372;28;20434;-89
2023/07/29 05:53:45;;;;;;;6.33;2.63;;;;;;;;;;4991902;28;20441;-89
2023/07/29 05:56:10;;;;;;;4.00;2.70;;;;;;;;;;4999772;28;20941;-91
2023/07/29 05:58:37;;;;;;;5.50;2.60;;;;;;;;;;4985606;28;20504;-90
2023/07/29 06:01:03;;;;;;;2.90;2.37;;;;;;;;;;4985998;28;20441;-91
2023/07/29 06:03:29;;;;;;;6.17;2.80;;;;;;;;;;4985120;28;20527;-89
2023/07/29 06:06:17;;;;;;;2.20;1.93;;;;;;;;;;4987897;28;20512;-89
2023/07/29 06:08:46;;;;;;;3.30;2.70;;;;;;;;;;5001661;28;20397;-90
2023/07/29 06:11:24;;;;;;;2.80;2.40;;;;;;;;;;4985546;28;20498;-90
2023/07/29 06:13:50;;;;;;;3.33;2.13;;;;;;;;;;4974069;28;20453;-90
2023/07/29 06:16:16;;;;;;;3.23;2.10;;;;;;;;;;4986879;28;20406;-90
2023/07/29 06:18:42;;;;;;;3.77;2.40;;;;;;;;;;4965724;28;20452;-91
2023/07/29 06:21:11;;;;;;;4.53;2.33;;;;;;;;;;4955970;28;20468;-90
2023/07/29 06:23:37;;;;;;;2.60;1.80;;;;;;;;;;4969689;28;20421;-91
2023/07/29 06:26:04;;;;;;;2.67;2.03;;;;;;;;;;4971165;28;20701;-90
2023/07/29 06:28:30;;;;;;;2.40;1.83;;;;;;;;;;4990189;28;20460;-90
2023/07/29 06:30:56;;;;;;;3.20;1.60;;;;;;;;;;4975062;28;20437;-89
2023/07/29 06:33:24;;;;;;;2.90;2.07;;;;;;;;;;4969703;28;20444;-89
2023/07/29 06:35:53;;;;;;;2.70;1.93;;;;;;;;;;4967342;28;20442;-89
2023/07/29 06:38:21;;;;;;;2.90;1.47;;;;;;;;;;5001574;28;20453;-90
2023/07/29 06:40:48;;;;;;;4.90;2.40;;;;;;;;;;4964592;28;20433;-89
2023/07/29 06:43:14;;;;;;;3.50;2.00;;;;;;;;;;4982324;28;20460;-89
2023/07/29 06:45:40;;;;;;;2.17;1.60;;;;;;;;;;4928459;29;20455;-90
2023/07/29 06:48:06;;;;;;;2.43;1.73;;;;;;;;;;4946163;29;20864;-89
2023/07/29 06:50:32;;;;;;;2.90;1.83;;;;;;;;;;4953246;28;20434;-92
2023/07/29 06:52:58;;;;;;;2.57;1.47;;;;;;;;;;4949072;29;20419;-92
2023/07/29 06:55:24;;;;;;;5.07;1.90;;;;;;;;;;4945616;28;20513;-92
2023/07/29 06:57:50;;;;;;;3.70;1.40;;;;;;;;;;4947688;29;20427;-92
2023/07/29 07:00:16;;;;;;;2.20;1.50;;;;;;;;;;4955270;28;20453;-92
2023/07/29 07:02:42;;;;;;;2.57;1.63;;;;;;;;;;4957611;28;20532;-94
2023/07/29 07:05:08;;;;;;;3.03;2.03;;;;;;;;;;4948681;29;20438;-92
2023/07/29 07:10:10;;;;;;;4.50;2.03;;;;;;;;;;5042853;23;20476;-90
2023/07/29 07:12:36;;;;;;;2.77;2.00;;;;;;;;;;5002766;28;20442;-91
2023/07/29 07:15:04;;;;;;;2.73;2.00;;;;;;;;;;5008520;28;20452;-90
2023/07/29 07:17:30;;;;;;;2.50;2.20;;;;;;;;;;4991016;28;20505;-90
2023/07/29 07:19:59;;;;;;;2.50;2.00;;;;;;;;;;4985447;28;20488;-91
2023/07/29 07:22:25;;;;;;;2.20;1.80;;;;;;;;;;5002992;28;20542;-91
2023/07/29 07:24:51;;;;;;;2.50;2.03;;;;;;;;;;5002330;28;20445;-91
2023/07/29 07:27:17;;;;;;;2.03;1.77;;;;;;;;;;5007620;28;20436;-90
2023/07/29 07:29:43;;;;;;;3.10;2.00;;;;;;;;;;5009215;28;20445;-89
2023/07/29 07:32:09;;;;;;;2.97;1.93;;;;;;;;;;4989860;28;20437;-90
2023/07/29 07:34:35;;;;;;;2.77;1.50;;;;;;;;;;5014411;28;20440;-89
2023/07/29 07:37:04;;;;;;;2.43;1.60;;;;;;;;;;5002033;28;20408;-89
2023/07/29 07:39:32;;;;;;;2.47;1.53;;;;;;;;;;4996071;28;20479;-90
2023/07/29 07:41:58;;;;;;;2.20;1.20;;;;;;;;;;4992119;28;21212;-90
2023/07/29 07:44:26;;;;;;;1.70;1.20;;;;;;;;;;4965527;28;20424;-89
2023/07/29 07:46:52;;;;;;;1.70;1.30;;;;;;;;;;5000018;28;20459;-89
2023/07/29 07:49:18;;;;;;;2.00;1.40;;;;;;;;;;4974179;28;20441;-89
2023/07/29 07:51:44;;;;;;;2.27;1.67;;;;;;;;;;4986494;28;20420;-88
2023/07/29 07:54:10;;;;;;;1.93;1.70;;;;;;;;;;4998747;28;20417;-89
2023/07/29 07:56:36;;;;;;;3.40;1.97;;;;;;;;;;5000600;28;20444;-89
2023/07/29 07:59:02;;;;;;;8.10;2.00;;;;;;;;;;4970995;28;20429;-90
2023/07/29 08:01:28;;;;;;;2.57;2.20;;;;;;;;;;4983674;28;20506;-88
2023/07/29 08:03:54;;;;;;;3.00;1.30;;;;;;;;;;4988749;28;20436;-90
2023/07/29 08:06:21;;;;;;;1.53;1.30;;;;;;;;;;4988555;28;20498;-89
2023/07/29 08:08:48;;;;;;;2.50;1.27;;;;;;;;;;4980925;28;20449;-90
2023/07/29 08:11:14;;;;;;;2.13;1.50;;;;;;;;;;4976672;28;20915;-89
2023/07/29 08:13:40;;;;;;;3.60;1.87;;;;;;;;;;4983112;28;20469;-90
2023/07/29 08:16:09;;;;;;;3.13;1.63;;;;;;;;;;5010831;28;20931;-88
2023/07/29 08:18:35;;;;;;;1.93;1.20;;;;;;;;;;5008456;28;20447;-90
2023/07/29 08:21:04;;;;;;;3.00;1.50;;;;;;;;;;5005858;28;20424;-87
2023/07/29 08:23:30;;;;;;;1.90;1.30;;;;;;;;;;5021853;28;20438;-90
2023/07/29 08:26:03;;;;;;;2.20;1.03;;;;;;;;;;5007349;28;20520;-88
2023/07/29 08:28:33;;;;;;;2.40;1.77;;;;;;;;;;5006430;28;20969;-90
2023/07/29 08:30:59;;;;;;;3.00;1.50;;;;;;;;;;5008395;28;20408;-90
2023/07/29 08:33:25;;;;;;;2.47;1.50;;;;;;;;;;5002546;28;20452;-88
2023/07/29 08:35:51;;;;;;;1.67;1.10;;;;;;;;;;5000693;28;20433;-89
2023/07/29 08:38:21;;;;;;;2.70;1.67;;;;;;;;;;4997431;28;20943;-90
2023/07/29 08:41:07;;;;;;;2.37;1.90;;;;;;;;;;5013434;28;20495;-88
2023/07/29 08:43:33;;;;;;;2.23;1.13;;;;;;;;;;5009858;28;20420;-87
2023/07/29 08:46:00;;;;;;;2.43;1.30;;;;;;;;;;4995501;28;20468;-88
2023/07/29 08:48:44;;;;;;;2.67;1.40;;;;;;;;;;5018453;28;20847;-88
2023/07/29 08:51:10;;;;;;;2.40;1.10;;;;;;;;;;4999495;28;20955;-87
2023/07/29 08:53:39;;;;;;;1.50;1.00;;;;;;;;;;5004800;28;20587;-87
2023/07/29 08:56:09;;;;;;;2.97;1.83;;;;;;;;;;5007167;28;20958;-86
2023/07/29 08:58:35;;;;;;;2.80;1.03;;;;;;;;;;5019330;28;20419;-88
2023/07/29 09:01:03;;;;;;;2.40;1.57;;;;;;;;;;4995475;28;20467;-88
2023/07/29 09:03:31;;;;;;;2.40;1.30;;;;;;;;;;5005391;28;20503;-88
2023/07/29 09:05:59;;;;;;;2.50;1.40;;;;;;;;;;4993534;28;20468;-87
2023/07/29 09:08:28;;;;;;;2.10;1.30;;;;;;;;;;4997950;28;20443;-90
2023/07/29 09:10:57;;;;;;;2.57;1.60;;;;;;;;;;5006013;28;20432;-90
2023/07/29 09:13:23;;;;;;;2.13;1.50;;;;;;;;;;5006287;28;20416;-90
2023/07/29 09:16:04;;;;;;;4.73;1.57;;;;;;;;;;5007600;28;20437;-87
2023/07/29 09:18:31;;;;;;;2.33;1.40;;;;;;;;;;5024514;28;20458;-91
2023/07/29 09:20:59;;;;;;;2.53;1.40;;;;;;;;;;5006650;28;20459;-89
2023/07/29 09:23:25;;;;;;;2.47;1.50;;;;;;;;;;5002611;28;20434;-88
2023/07/29 09:25:51;;;;;;;2.07;1.30;;;;;;;;;;5021928;28;20974;-88
2023/07/29 09:28:17;;;;;;;2.80;1.27;;;;;;;;;;5005829;28;20439;-90
2023/07/29 09:30:43;;;;;;;2.13;1.10;;;;;;;;;;5001715;28;20437;-89
2023/07/29 09:33:09;;;;;;;2.43;1.60;;;;;;;;;;5003435;28;20440;-89
2023/07/29 09:35:37;;;;;;;2.00;1.30;;;;;;;;;;4999386;28;20420;-89
2023/07/29 09:38:03;;;;;;;2.90;1.57;;;;;;;;;;5019214;28;20479;-89
2023/07/29 09:40:37;;;;;;;2.00;1.50;;;;;;;;;;5015064;28;20416;-90
2023/07/29 09:43:03;;;;;;;3.20;1.60;;;;;;;;;;5016052;28;20434;-89
2023/07/29 09:45:30;;;;;;;2.30;1.53;;;;;;;;;;5017758;28;20456;-89
2023/07/29 09:47:57;;;;;;;2.57;1.90;;;;;;;;;;5007575;28;20456;-88
2023/07/29 09:50:26;;;;;;;2.37;1.53;;;;;;;;;;5001443;28;20435;-87
2023/07/29 09:52:53;;;;;;;2.40;1.70;;;;;;;;;;5004376;28;20914;-89
2023/07/29 09:55:19;;;;;;;2.90;1.70;;;;;;;;;;5001230;28;20494;-92
2023/07/29 09:57:45;;;;;;;6.20;1.70;;;;;;;;;;4999246;28;20420;-89
2023/07/29 10:00:11;;;;;;;2.20;1.63;;;;;;;;;;5003863;28;20432;-92
2023/07/29 10:02:42;;;;;;;2.00;1.50;;;;;;;;;;5003311;28;20439;-89
2023/07/29 10:05:08;;;;;;;2.57;1.63;;;;;;;;;;5040445;28;20455;-89
2023/07/29 10:07:37;;;;;;;2.50;1.40;;;;;;;;;;5022998;28;20424;-89
2023/07/29 10:10:04;;;;;;;2.17;1.37;;;;;;;;;;5027147;28;20440;-90
2023/07/29 10:12:33;;;;;;;3.33;1.70;;;;;;;;;;5013569;28;21837;-90
2023/07/29 10:15:01;;;;;;;3.23;1.80;;;;;;;;;;5002052;28;20507;-88
2023/07/29 10:17:30;;;;;;;2.77;1.70;;;;;;;;;;5018165;28;20409;-91
2023/07/29 10:19:59;;;;;;;2.10;1.40;;;;;;;;;;5020782;28;20413;-89
2023/07/29 10:22:26;;;;;;;6.33;2.00;;;;;;;;;;5004567;28;20435;-90
2023/07/29 10:24:52;;;;;;;3.07;2.30;;;;;;;;;;5004161;28;20456;-89
2023/07/29 10:27:19;;;;;;;2.50;1.87;;;;;;;;;;5017437;28;20435;-89
2023/07/29 10:29:46;;;;;;;2.30;1.43;;;;;;;;;;5022745;28;20491;-89
2023/07/29 10:32:12;;;;;;;2.57;1.60;;;;;;;;;;5002600;28;20440;-88
2023/07/29 10:34:40;;;;;;;2.40;1.73;;;;;;;;;;5001736;28;20431;-90
2023/07/29 10:37:06;;;;;;;2.70;1.80;;;;;;;;;;5005992;28;20456;-89
2023/07/29 10:39:39;;;;;;;2.00;1.53;;;;;;;;;;5021362;28;20427;-89
2023/07/29 10:42:06;;;;;;;2.57;1.77;;;;;;;;;;4998625;28;20445;-88
2023/07/29 10:44:54;;;;;;;2.50;1.90;;;;;;;;;;4999384;28;20428;-86
2023/07/29 10:47:20;;;;;;;3.17;1.80;;;;;;;;;;4998795;28;20948;-86
2023/07/29 10:49:54;;;;;;;2.57;1.43;;;;;;;;;;5003971;28;20404;-86
2023/07/29 10:52:30;;;;;;;2.77;1.57;;;;;;;;;;5025014;28;20405;-85
2023/07/29 10:54:58;;;;;;;2.47;1.70;;;;;;;;;;5025131;28;20499;-88
2023/07/29 10:57:34;;;;;;;2.53;1.70;;;;;;;;;;5006621;28;20423;-87
2023/07/29 11:00:02;;;;;;;2.40;1.30;;;;;;;;;;5030831;28;20404;-89
2023/07/29 11:02:32;;;;;;;2.13;1.33;;;;;;;;;;5029793;28;20420;-88
2023/07/29 11:04:59;;;;;;;3.40;1.60;;;;;;;;;;5010447;28;20439;-88
2023/07/29 11:07:28;;;;;;;2.00;1.23;;;;;;;;;;5006822;28;20470;-87
2023/07/29 11:09:58;;;;;;;2.67;1.60;;;;;;;;;;5021108;28;20455;-89
2023/07/29 11:12:33;;;;;;;2.67;1.43;;;;;;;;;;4997273;28;20903;-89
2023/07/29 11:15:00;;;;;;;2.57;1.83;;;;;;;;;;5035785;28;20416;-87
2023/07/29 11:17:27;;;;;;;2.40;1.70;;;;;;;;;;4999048;28;20827;-93
2023/07/29 11:20:03;;;;;;;3.90;1.50;;;;;;;;;;5012295;28;20447;-92
2023/07/29 11:22:29;;;;;;;2.63;1.80;;;;;;;;;;5013245;28;20436;-92
2023/07/29 11:24:55;;;;;;;2.07;1.23;;;;;;;;;;5020205;28;20419;-91
2023/07/29 11:27:21;;;;;;;3.70;1.20;;;;;;;;;;5019666;28;20886;-92
2023/07/29 11:29:47;;;;;;;2.10;1.67;;;;;;;;;;5023072;28;20449;-88
2023/07/29 11:32:14;;;;;;;2.53;1.67;;;;;;;;;;5020289;28;20456;-88
2023/07/29 11:34:40;;;;;;;2.27;1.50;;;;;;;;;;5012787;28;20579;-88
2023/07/29 11:37:09;;;;;;;2.40;1.70;;;;;;;;;;5012277;28;20432;-89
2023/07/29 11:39:40;;;;;;;2.43;1.57;;;;;;;;;;5021932;28;20433;-88
2023/07/29 11:42:08;;;;;;;2.60;1.83;;;;;;;;;;5016063;28;20429;-91
2023/07/29 11:44:34;;;;;;;2.10;1.50;;;;;;;;;;4994621;28;20447;-89
2023/07/29 11:47:00;;;;;;;4.07;1.70;;;;;;;;;;5020298;28;20460;-88
2023/07/29 11:49:25;;;;;;;2.00;1.33;;;;;;;;;;5021181;28;20424;-90
2023/07/29 11:51:52;;;;;;;2.47;1.57;;;;;;;;;;5009140;28;20440;-90
2023/07/29 11:54:21;;;;;;;2.93;1.60;;;;;;;;;;4994636;28;21049;-90
2023/07/29 11:56:47;;;;;;;2.67;1.60;;;;;;;;;;4996530;28;20607;-91
2023/07/29 11:59:13;;;;;;;2.63;1.77;;;;;;;;;;5002860;28;20447;-91
2023/07/29 12:01:39;;;;;;;3.07;1.70;;;;;;;;;;5003645;28;20499;-91
2023/07/29 12:04:05;;;;;;;2.10;1.30;;;;;;;;;;5022891;28;20431;-91
2023/07/29 12:06:31;;;;;;;2.20;1.30;;;;;;;;;;5015295;28;20460;-92
2023/07/29 12:08:58;;;;;;;2.27;1.50;;;;;;;;;;5018628;28;20973;-92
2023/07/29 12:11:24;;;;;;;3.10;1.60;;;;;;;;;;5000846;28;20435;-92
2023/07/29 12:13:50;;;;;;;2.50;1.43;;;;;;;;;;5003711;28;20528;-92
2023/07/29 12:16:19;;;;;;;3.13;1.60;;;;;;;;;;5005798;28;20523;-93
2023/07/29 12:18:45;;;;;;;3.03;1.80;;;;;;;;;;5002992;28;20447;-93
2023/07/29 12:21:16;;;;;;;2.33;1.83;;;;;;;;;;5008970;28;20420;-95
2023/07/29 13:05:15;;;;;;;2.80;2.20;;;;;;;;;;1111091;26;20772;-91
2023/07/29 13:07:41;;;;;;;2.57;1.63;;;;;;;;;;5003465;28;20436;-89
2023/07/29 13:10:07;;;;;;;2.60;1.90;;;;;;;;;;5020108;28;20431;-90
2023/07/29 13:12:33;;;;;;;2.57;1.60;;;;;;;;;;5006432;28;20442;-91
2023/07/29 13:14:59;;;;;;;2.33;1.57;;;;;;;;;;5000673;28;20956;-90
2023/07/29 13:17:25;;;;;;;3.37;2.27;;;;;;;;;;5005109;28;20454;-88
2023/07/29 13:19:51;;;;;;;2.33;1.80;;;;;;;;;;5006685;28;20562;-91
2023/07/29 13:22:17;;;;;;;3.13;1.40;;;;;;;;;;5033536;28;20440;-89
2023/07/29 13:24:43;;;;;;;2.97;1.80;;;;;;;;;;5003575;28;20444;-89
2023/07/29 13:27:09;;;;;;;2.30;1.70;;;;;;;;;;5002540;28;20529;-90
2023/07/29 13:29:35;;;;;;;3.60;1.60;;;;;;;;;;4968486;28;20583;-89
2023/07/29 13:32:01;;;;;;;2.50;1.97;;;;;;;;;;4974341;28;21018;-89
2023/07/29 13:34:27;;;;;;;2.80;1.80;;;;;;;;;;5000440;28;20424;-90
2023/07/29 13:36:54;;;;;;;2.47;1.70;;;;;;;;;;4967962;28;20452;-88
2023/07/29 13:39:20;;;;;;;2.90;1.63;;;;;;;;;;4988735;28;20440;-89
2023/07/29 13:41:49;;;;;;;3.10;1.70;;;;;;;;;;4985426;28;21087;-88
2023/07/29 13:44:15;;;;;;;2.47;1.53;;;;;;;;;;4970884;28;20517;-88
2023/07/29 13:46:41;;;;;;;2.47;1.63;;;;;;;;;;4971363;28;21271;-90
2023/07/29 13:49:07;;;;;;;2.20;1.43;;;;;;;;;;4998427;28;20899;-89
2023/07/29 13:51:34;;;;;;;3.70;2.17;;;;;;;;;;4985686;28;20486;-89
2023/07/29 13:54:00;;;;;;;2.40;1.63;;;;;;;;;;4957698;28;20469;-91
2023/07/29 13:56:26;;;;;;;2.90;2.30;;;;;;;;;;4983026;28;20440;-89
2023/07/29 13:58:52;;;;;;;2.90;1.87;;;;;;;;;;4997183;28;20432;-89
2023/07/29 14:01:19;;;;;;;2.77;1.87;;;;;;;;;;5004090;28;20451;-89
2023/07/29 14:03:45;;;;;;;2.97;1.93;;;;;;;;;;5017904;28;20514;-90
2023/07/29 14:06:16;;;;;;;3.60;1.90;;;;;;;;;;5022833;28;20471;-88
2023/07/29 14:08:42;;;;;;;2.07;1.60;;;;;;;;;;5030474;28;20599;-88
2023/07/29 14:11:09;;;;;;;5.00;2.20;;;;;;;;;;5029995;28;20431;-89
2023/07/29 14:13:35;;;;;;;2.73;1.60;;;;;;;;;;5002648;28;20456;-89
2023/07/29 14:16:04;;;;;;;2.20;1.53;;;;;;;;;;5018980;28;20440;-88
2023/07/29 14:18:30;;;;;;;2.63;1.50;;;;;;;;;;5005782;28;20443;-88
2023/07/29 14:20:56;;;;;;;2.77;1.77;;;;;;;;;;5015175;28;20452;-87
2023/07/29 14:23:22;;;;;;;3.43;2.03;;;;;;;;;;5038295;28;20444;-88
2023/07/29 14:25:48;;;;;;;2.17;1.63;;;;;;;;;;5007746;28;20451;-87
2023/07/29 14:28:14;;;;;;;2.10;1.47;;;;;;;;;;5005261;28;20490;-88
2023/07/29 14:30:41;;;;;;;2.57;1.87;;;;;;;;;;5003889;28;20427;-87
2023/07/29 14:33:07;;;;;;;3.70;2.20;;;;;;;;;;5004875;28;20412;-87
2023/07/29 14:35:33;;;;;;;2.43;1.77;;;;;;;;;;4999810;28;20436;-88
2023/07/29 14:37:59;;;;;;;6.93;2.00;;;;;;;;;;5005777;28;20420;-88
2023/07/29 14:40:25;;;;;;;2.63;1.83;;;;;;;;;;5005588;28;20885;-89
2023/07/29 14:42:51;;;;;;;3.13;1.90;;;;;;;;;;5026438;28;20492;-89
2023/07/29 14:45:17;;;;;;;2.20;1.63;;;;;;;;;;4999577;28;20464;-88
2023/07/29 14:47:43;;;;;;;3.27;2.20;;;;;;;;;;5019100;28;20490;-88
2023/07/29 14:50:09;;;;;;;2.80;1.77;;;;;;;;;;5019707;28;20412;-89
2023/07/29 14:52:35;;;;;;;2.70;1.93;;;;;;;;;;5009647;28;20531;-88
2023/07/29 14:55:01;;;;;;;2.40;1.40;;;;;;;;;;5011790;28;20753;-88
2023/07/29 14:57:27;;;;;;;3.80;1.90;;;;;;;;;;5035470;28;20582;-88
2023/07/29 14:59:53;;;;;;;2.53;1.60;;;;;;;;;;5019925;28;20482;-89
2023/07/29 15:02:19;;;;;;;2.50;1.40;;;;;;;;;;5003594;28;20439;-88
2023/07/29 15:04:45;;;;;;;2.77;1.73;;;;;;;;;;5017331;28;20503;-88
2023/07/29 15:07:11;;;;;;;3.20;1.80;;;;;;;;;;5012833;28;20460;-88
2023/07/29 15:09:37;;;;;;;2.70;1.87;;;;;;;;;;5002030;28;20440;-88
2023/07/29 15:12:03;;;;;;;2.87;2.00;;;;;;;;;;5006935;28;20436;-88
2023/07/29 15:14:29;;;;;;;2.90;1.77;;;;;;;;;;4979424;28;20434;-88
2023/07/29 15:16:55;;;;;;;2.50;1.63;;;;;;;;;;4970618;28;20435;-87
2023/07/29 15:19:21;;;;;;;2.07;1.47;;;;;;;;;;4983641;28;20940;-89
2023/07/29 15:21:49;;;;;;;3.50;2.43;;;;;;;;;;4979643;28;20995;-87
2023/07/29 15:24:15;;;;;;;2.87;1.93;;;;;;;;;;5003405;28;20517;-88
2023/07/29 15:26:41;;;;;;;3.27;1.90;;;;;;;;;;4977636;28;20525;-88
2023/07/29 15:29:08;;;;;;;2.17;1.60;;;;;;;;;;4983594;28;20517;-89
2023/07/29 15:31:36;;;;;;;3.80;1.73;;;;;;;;;;4984401;28;20425;-88
2023/07/29 15:34:02;;;;;;;3.20;1.80;;;;;;;;;;4982147;28;20540;-88
2023/07/29 15:36:28;;;;;;;2.60;2.00;;;;;;;;;;4967316;28;20928;-89